Time;durP1;ratioP1;P1;durP2;ratioP2;P2;SDS_P1;SDS_P2;PMS_P1;PMS_P2;Temp;Humidity;BMP_temperature;BMP_pressure;BME280_temperature;BME280_humidity;BME280_pressure;Samples;Min_cycle;Max_cycle;Signal;HPM_P1;HPM_P2
2021/06/12 00:02:15;;;;;;;4.15;2.30;;;;;;;;;;5153061;27;20018;-63
2021/06/12 00:04:41;;;;;;;6.18;2.80;;;;;;;;;;5134142;27;20023;-64
2021/06/12 00:07:08;;;;;;;5.45;2.88;;;;;;;;;;5153126;27;20472;-66
2021/06/12 00:09:34;;;;;;;7.70;2.80;;;;;;;;;;5134002;27;20054;-64
2021/06/12 00:12:00;;;;;;;6.03;2.50;;;;;;;;;;5152800;27;20031;-64
2021/06/12 00:14:26;;;;;;;6.30;2.60;;;;;;;;;;5152781;27;20094;-64
2021/06/12 00:16:52;;;;;;;6.68;3.00;;;;;;;;;;5153248;27;20027;-64
2021/06/12 00:19:18;;;;;;;5.97;2.60;;;;;;;;;;5152482;27;20027;-63
2021/06/12 00:21:44;;;;;;;5.28;2.70;;;;;;;;;;5152536;27;20156;-63
2021/06/12 00:24:10;;;;;;;5.72;2.95;;;;;;;;;;5152647;27;20532;-66
2021/06/12 00:26:37;;;;;;;3.95;2.65;;;;;;;;;;5152298;27;20042;-64
2021/06/12 00:29:03;;;;;;;4.88;2.65;;;;;;;;;;5138863;27;20039;-65
2021/06/12 00:31:29;;;;;;;5.85;2.67;;;;;;;;;;5148683;27;20507;-66
2021/06/12 00:33:56;;;;;;;4.55;2.45;;;;;;;;;;5151632;27;20038;-65
2021/06/12 00:36:22;;;;;;;7.50;2.92;;;;;;;;;;5152240;27;20110;-63
2021/06/12 00:38:49;;;;;;;6.53;2.95;;;;;;;;;;5153223;27;20030;-63
2021/06/12 00:41:15;;;;;;;8.27;2.83;;;;;;;;;;5134239;27;20046;-64
2021/06/12 00:43:42;;;;;;;9.32;2.60;;;;;;;;;;5136007;27;20102;-64
2021/06/12 00:46:09;;;;;;;6.20;2.60;;;;;;;;;;5136085;27;20095;-64
2021/06/12 00:48:35;;;;;;;5.95;2.53;;;;;;;;;;5136005;27;20023;-64
2021/06/12 00:51:01;;;;;;;4.50;2.53;;;;;;;;;;5135804;27;20045;-64
2021/06/12 00:53:37;;;;;;;7.72;2.80;;;;;;;;;;5134272;27;20087;-64
2021/06/12 00:56:06;;;;;;;4.38;2.45;;;;;;;;;;5135715;27;20023;-64
2021/06/12 00:58:33;;;;;;;5.85;2.60;;;;;;;;;;5135944;27;20473;-64
2021/06/12 01:01:00;;;;;;;4.68;2.70;;;;;;;;;;5135760;27;20370;-64
2021/06/12 01:03:28;;;;;;;5.97;2.35;;;;;;;;;;5134510;27;20446;-63
2021/06/12 01:05:54;;;;;;;6.72;2.70;;;;;;;;;;5135572;27;20020;-64
2021/06/12 01:08:20;;;;;;;4.38;2.67;;;;;;;;;;5134035;27;20031;-64
2021/06/12 01:10:46;;;;;;;6.53;2.63;;;;;;;;;;5135446;27;20466;-64
2021/06/12 01:13:23;;;;;;;4.97;2.70;;;;;;;;;;5135280;27;20532;-64
2021/06/12 01:15:55;;;;;;;5.55;2.50;;;;;;;;;;5135252;27;20031;-63
2021/06/12 01:18:23;;;;;;;5.97;2.70;;;;;;;;;;5135644;27;20015;-64
2021/06/12 01:20:59;;;;;;;3.85;2.50;;;;;;;;;;5135541;27;20031;-64
2021/06/12 01:23:25;;;;;;;6.47;2.88;;;;;;;;;;5135150;27;20019;-64
2021/06/12 01:26:04;;;;;;;4.85;2.70;;;;;;;;;;5133686;27;20137;-63
2021/06/12 01:28:48;;;;;;;4.93;2.63;;;;;;;;;;5135402;27;20062;-63
2021/06/12 01:31:15;;;;;;;7.07;2.65;;;;;;;;;;5135306;27;20080;-64
2021/06/12 01:33:43;;;;;;;5.07;2.58;;;;;;;;;;5134551;27;20023;-64
2021/06/12 01:36:12;;;;;;;4.93;2.85;;;;;;;;;;5135081;27;20568;-63
2021/06/12 01:38:43;;;;;;;6.80;3.05;;;;;;;;;;5134881;27;20019;-65
2021/06/12 01:41:10;;;;;;;6.50;2.97;;;;;;;;;;5138055;27;20042;-63
2021/06/12 01:43:37;;;;;;;8.13;3.20;;;;;;;;;;5155367;27;20091;-64
2021/06/12 01:46:05;;;;;;;5.05;2.58;;;;;;;;;;5155663;27;20080;-64
2021/06/12 01:48:31;;;;;;;6.28;2.70;;;;;;;;;;5155477;27;20203;-64
2021/06/12 01:51:04;;;;;;;6.25;2.83;;;;;;;;;;5154357;27;20119;-64
2021/06/12 01:53:33;;;;;;;5.68;2.70;;;;;;;;;;5136763;27;20113;-64
2021/06/12 01:56:05;;;;;;;4.72;2.50;;;;;;;;;;5155690;27;20029;-64
2021/06/12 01:58:32;;;;;;;6.40;3.00;;;;;;;;;;5136877;27;20070;-64
2021/06/12 02:00:58;;;;;;;7.28;2.78;;;;;;;;;;5155389;27;20046;-64
2021/06/12 02:03:26;;;;;;;8.13;3.08;;;;;;;;;;5154968;27;20022;-64
2021/06/12 02:05:53;;;;;;;4.32;2.92;;;;;;;;;;5155069;27;20050;-64
2021/06/12 02:08:20;;;;;;;7.25;3.13;;;;;;;;;;5155113;27;20021;-64
2021/06/12 02:10:47;;;;;;;7.03;2.80;;;;;;;;;;5155120;27;20056;-63
2021/06/12 02:13:13;;;;;;;6.55;2.70;;;;;;;;;;5155007;27;20030;-63
2021/06/12 02:15:39;;;;;;;4.45;2.60;;;;;;;;;;5155017;27;20049;-64
2021/06/12 02:18:09;;;;;;;11.63;3.08;;;;;;;;;;5155099;27;20023;-64
2021/06/12 02:20:36;;;;;;;5.97;3.20;;;;;;;;;;5155104;27;20031;-64
2021/06/12 02:23:04;;;;;;;5.57;3.17;;;;;;;;;;5154942;27;20015;-63
2021/06/12 02:25:31;;;;;;;5.72;3.00;;;;;;;;;;5154677;27;20454;-64
2021/06/12 02:27:59;;;;;;;5.43;3.08;;;;;;;;;;5153150;27;20022;-64
2021/06/12 02:30:29;;;;;;;6.30;2.97;;;;;;;;;;5154897;27;20058;-64
2021/06/12 02:32:57;;;;;;;6.13;3.33;;;;;;;;;;5136205;27;20106;-64
2021/06/12 02:35:23;;;;;;;9.40;3.28;;;;;;;;;;5154259;27;20018;-63
2021/06/12 02:37:49;;;;;;;5.85;3.00;;;;;;;;;;5154369;27;20419;-63
2021/06/12 02:40:16;;;;;;;7.40;3.03;;;;;;;;;;5154515;27;20015;-64
2021/06/12 02:42:42;;;;;;;7.35;3.20;;;;;;;;;;5154492;27;20046;-64
2021/06/12 02:45:09;;;;;;;6.22;3.30;;;;;;;;;;5154151;27;20027;-64
2021/06/12 02:47:37;;;;;;;5.97;3.28;;;;;;;;;;5135953;27;20038;-63
2021/06/12 02:50:04;;;;;;;6.28;3.33;;;;;;;;;;5154319;27;20105;-64
2021/06/12 02:52:31;;;;;;;5.80;2.83;;;;;;;;;;5154522;27;20052;-64
2021/06/12 02:55:01;;;;;;;6.45;3.50;;;;;;;;;;5154059;27;20058;-65
2021/06/12 02:57:27;;;;;;;6.95;3.10;;;;;;;;;;5136068;27;20019;-64
2021/06/12 02:59:53;;;;;;;5.22;3.10;;;;;;;;;;5154129;27;20022;-63
2021/06/12 03:02:21;;;;;;;5.13;3.40;;;;;;;;;;5153220;27;20015;-64
2021/06/12 03:04:47;;;;;;;7.55;3.30;;;;;;;;;;5153096;27;20033;-63
2021/06/12 03:07:14;;;;;;;11.43;3.13;;;;;;;;;;5153533;27;20027;-64
2021/06/12 03:09:42;;;;;;;6.63;3.53;;;;;;;;;;5134966;27;20039;-64
2021/06/12 03:12:09;;;;;;;6.82;3.28;;;;;;;;;;5153356;27;20050;-64
2021/06/12 03:14:37;;;;;;;7.70;3.30;;;;;;;;;;5134406;27;20497;-64
2021/06/12 03:17:03;;;;;;;5.88;3.50;;;;;;;;;;5153295;27;20029;-63
2021/06/12 03:19:30;;;;;;;7.18;3.33;;;;;;;;;;5153042;27;20022;-64
2021/06/12 03:21:57;;;;;;;7.32;3.17;;;;;;;;;;5134797;27;20105;-64
2021/06/12 03:24:23;;;;;;;10.15;3.85;;;;;;;;;;5153328;27;20026;-64
2021/06/12 03:26:50;;;;;;;6.35;3.65;;;;;;;;;;5134419;27;20551;-65
2021/06/12 03:29:16;;;;;;;5.97;3.42;;;;;;;;;;5153245;27;20034;-65
2021/06/12 03:32:01;;;;;;;6.45;3.15;;;;;;;;;;5153391;27;20027;-65
2021/06/12 03:34:27;;;;;;;10.75;3.60;;;;;;;;;;5135109;27;20079;-65
2021/06/12 03:36:53;;;;;;;7.85;3.38;;;;;;;;;;5153343;27;20018;-65
2021/06/12 03:39:20;;;;;;;11.10;3.78;;;;;;;;;;5153866;27;20075;-66
2021/06/12 03:41:46;;;;;;;10.00;3.63;;;;;;;;;;5153586;27;20094;-65
2021/06/12 03:44:13;;;;;;;8.63;3.78;;;;;;;;;;5153723;27;20018;-66
2021/06/12 03:46:41;;;;;;;5.47;3.17;;;;;;;;;;5153271;27;20574;-66
2021/06/12 03:49:07;;;;;;;5.97;3.53;;;;;;;;;;5153458;27;20034;-66
2021/06/12 03:51:33;;;;;;;7.13;3.33;;;;;;;;;;5153471;27;20019;-66
2021/06/12 03:54:00;;;;;;;5.75;3.30;;;;;;;;;;5152686;27;20018;-66
2021/06/12 03:56:31;;;;;;;4.85;3.28;;;;;;;;;;5153289;27;20030;-66
2021/06/12 03:58:57;;;;;;;5.90;3.75;;;;;;;;;;5153699;27;20382;-66
2021/06/12 04:01:24;;;;;;;5.85;3.47;;;;;;;;;;5153683;27;20027;-66
2021/06/12 04:03:50;;;;;;;7.13;3.50;;;;;;;;;;5153585;27;20613;-65
2021/06/12 04:06:16;;;;;;;8.43;3.30;;;;;;;;;;5153112;27;20544;-66
2021/06/12 04:08:42;;;;;;;7.13;4.07;;;;;;;;;;5153595;27;20103;-66
2021/06/12 04:11:08;;;;;;;5.50;3.42;;;;;;;;;;5153389;27;20050;-65
2021/06/12 04:13:34;;;;;;;6.60;3.45;;;;;;;;;;5153509;27;20164;-65
2021/06/12 04:16:00;;;;;;;5.65;3.60;;;;;;;;;;5156860;27;20019;-66
2021/06/12 04:18:27;;;;;;;5.32;3.35;;;;;;;;;;5138572;27;20468;-66
2021/06/12 04:20:53;;;;;;;6.93;3.05;;;;;;;;;;5157332;27;20054;-66
2021/06/12 04:23:19;;;;;;;7.20;3.25;;;;;;;;;;5155865;27;20071;-66
2021/06/12 04:25:45;;;;;;;6.93;3.00;;;;;;;;;;5155600;27;20634;-66
2021/06/12 04:28:11;;;;;;;7.28;3.40;;;;;;;;;;5156483;27;20658;-66
2021/06/12 04:30:37;;;;;;;5.35;3.40;;;;;;;;;;5156885;27;20061;-66
2021/06/12 04:33:04;;;;;;;6.10;3.53;;;;;;;;;;5157163;27;20023;-66
2021/06/12 04:35:31;;;;;;;6.03;3.58;;;;;;;;;;5156961;27;20397;-66
2021/06/12 04:38:00;;;;;;;5.80;2.85;;;;;;;;;;5156759;27;20011;-66
2021/06/12 04:40:36;;;;;;;7.13;3.00;;;;;;;;;;5156751;27;20081;-66
2021/06/12 04:43:03;;;;;;;4.97;3.30;;;;;;;;;;5156923;27;20053;-66
2021/06/12 04:45:29;;;;;;;6.20;3.63;;;;;;;;;;5156905;27;20034;-66
2021/06/12 04:47:55;;;;;;;6.45;3.95;;;;;;;;;;5156706;27;20018;-66
2021/06/12 04:50:22;;;;;;;5.22;3.38;;;;;;;;;;5120841;27;20401;-66
2021/06/12 04:52:48;;;;;;;5.90;3.47;;;;;;;;;;5156544;27;20495;-66
2021/06/12 04:55:15;;;;;;;5.63;3.30;;;;;;;;;;5137982;27;20030;-66
2021/06/12 04:57:41;;;;;;;6.57;3.17;;;;;;;;;;5156543;27;20038;-66
2021/06/12 05:00:11;;;;;;;6.22;3.50;;;;;;;;;;5156693;27;20043;-66
2021/06/12 05:02:39;;;;;;;5.68;3.33;;;;;;;;;;5156455;27;20109;-65
2021/06/12 05:05:06;;;;;;;5.45;3.30;;;;;;;;;;5156455;27;20484;-66
2021/06/12 05:07:32;;;;;;;6.63;3.20;;;;;;;;;;5156501;27;20027;-66
2021/06/12 05:09:58;;;;;;;6.30;3.50;;;;;;;;;;5156206;27;20037;-66
2021/06/12 05:12:24;;;;;;;6.57;3.40;;;;;;;;;;5156169;27;20023;-66
2021/06/12 05:14:54;;;;;;;6.28;3.72;;;;;;;;;;5156021;27;20094;-66
2021/06/12 05:17:20;;;;;;;14.88;5.85;;;;;;;;;;5156350;27;20377;-64
2021/06/12 05:19:46;;;;;;;8.38;4.50;;;;;;;;;;5156152;27;20030;-64
2021/06/12 05:22:12;;;;;;;8.02;4.15;;;;;;;;;;5156130;27;20015;-64
2021/06/12 05:24:39;;;;;;;10.90;4.07;;;;;;;;;;5155905;27;20107;-64
2021/06/12 05:27:06;;;;;;;8.43;4.38;;;;;;;;;;5155724;27;20474;-64
2021/06/12 05:29:33;;;;;;;9.98;4.00;;;;;;;;;;5155569;27;20022;-63
2021/06/12 05:31:59;;;;;;;10.60;4.07;;;;;;;;;;5155922;27;20050;-64
2021/06/12 05:34:25;;;;;;;7.90;3.92;;;;;;;;;;5155857;27;20492;-64
2021/06/12 05:36:51;;;;;;;9.93;4.13;;;;;;;;;;5155955;27;20473;-64
2021/06/12 05:39:17;;;;;;;8.48;3.78;;;;;;;;;;5155629;27;20041;-63
2021/06/12 05:41:43;;;;;;;9.07;3.78;;;;;;;;;;5155334;27;20043;-64
2021/06/12 05:44:09;;;;;;;8.15;3.83;;;;;;;;;;5136952;27;20079;-64
2021/06/12 05:46:35;;;;;;;9.45;3.65;;;;;;;;;;5155624;27;20011;-63
2021/06/12 05:49:01;;;;;;;4.95;3.30;;;;;;;;;;5136950;27;20106;-64
2021/06/12 05:51:28;;;;;;;6.70;3.58;;;;;;;;;;5155273;27;20027;-64
2021/06/12 05:53:54;;;;;;;6.07;3.53;;;;;;;;;;5155585;27;20030;-64
2021/06/12 05:56:20;;;;;;;5.95;3.38;;;;;;;;;;5155304;27;20060;-64
2021/06/12 05:58:46;;;;;;;5.95;3.40;;;;;;;;;;5155071;27;20059;-64
2021/06/12 06:01:13;;;;;;;8.70;3.67;;;;;;;;;;5154902;27;20006;-64
2021/06/12 06:03:39;;;;;;;6.55;3.60;;;;;;;;;;5155103;27;20030;-63
2021/06/12 06:06:08;;;;;;;6.88;3.70;;;;;;;;;;5155223;27;20105;-63
2021/06/12 06:08:35;;;;;;;9.65;3.28;;;;;;;;;;5155024;27;20022;-64
2021/06/12 06:11:04;;;;;;;10.60;3.40;;;;;;;;;;5154777;27;20039;-64
2021/06/12 06:13:30;;;;;;;9.07;3.67;;;;;;;;;;5155238;27;20015;-64
2021/06/12 06:15:56;;;;;;;8.50;3.72;;;;;;;;;;5155219;27;20030;-66
2021/06/12 06:18:22;;;;;;;5.10;3.03;;;;;;;;;;5136389;27;20057;-66
2021/06/12 06:20:48;;;;;;;5.35;3.15;;;;;;;;;;5154554;27;20023;-66
2021/06/12 06:23:14;;;;;;;5.35;3.47;;;;;;;;;;5154698;27;20031;-66
2021/06/12 06:25:40;;;;;;;5.95;3.88;;;;;;;;;;5136102;27;20026;-66
2021/06/12 06:28:06;;;;;;;5.95;3.50;;;;;;;;;;5152292;27;20030;-66
2021/06/12 06:30:32;;;;;;;5.10;3.38;;;;;;;;;;5154219;27;20041;-66
2021/06/12 06:32:58;;;;;;;6.75;3.50;;;;;;;;;;5154797;27;20070;-66
2021/06/12 06:35:24;;;;;;;6.90;3.60;;;;;;;;;;5154668;27;20055;-66
2021/06/12 06:37:50;;;;;;;10.32;3.55;;;;;;;;;;5154091;27;20053;-66
2021/06/12 06:40:16;;;;;;;6.85;3.00;;;;;;;;;;5153809;27;20027;-65
2021/06/12 06:42:42;;;;;;;5.63;3.15;;;;;;;;;;5154383;27;20046;-66
2021/06/12 06:45:10;;;;;;;9.10;3.15;;;;;;;;;;5154381;27;20541;-66
2021/06/12 06:47:36;;;;;;;6.88;3.35;;;;;;;;;;5154357;27;20022;-65
2021/06/12 06:50:03;;;;;;;5.90;2.80;;;;;;;;;;5154334;27;20034;-65
2021/06/12 06:52:29;;;;;;;6.05;3.13;;;;;;;;;;5154202;27;20023;-65
2021/06/12 06:54:55;;;;;;;9.85;3.40;;;;;;;;;;5154045;27;20022;-66
2021/06/12 06:57:21;;;;;;;8.38;2.90;;;;;;;;;;5145517;27;20492;-66
2021/06/12 06:59:47;;;;;;;5.20;2.97;;;;;;;;;;5141060;27;20030;-65
2021/06/12 07:02:13;;;;;;;5.32;2.95;;;;;;;;;;5154034;27;20485;-66
2021/06/12 07:04:39;;;;;;;7.07;3.03;;;;;;;;;;5135368;27;20478;-66
2021/06/12 07:07:08;;;;;;;7.28;2.80;;;;;;;;;;5154073;27;20019;-65
2021/06/12 07:09:35;;;;;;;6.78;2.60;;;;;;;;;;5154157;27;20023;-65
2021/06/12 07:12:01;;;;;;;3.90;2.50;;;;;;;;;;5153813;27;20019;-66
2021/06/12 07:14:28;;;;;;;4.97;2.42;;;;;;;;;;5153405;27;20022;-65
2021/06/12 07:16:54;;;;;;;5.28;3.08;;;;;;;;;;5152010;27;20026;-66
2021/06/12 07:19:20;;;;;;;7.68;3.00;;;;;;;;;;5154030;27;20535;-63
2021/06/12 07:21:47;;;;;;;5.75;3.20;;;;;;;;;;5135667;27;20427;-64
2021/06/12 07:24:13;;;;;;;7.25;2.95;;;;;;;;;;5153672;27;20120;-64
2021/06/12 07:26:42;;;;;;;5.15;3.00;;;;;;;;;;5153694;27;20033;-66
2021/06/12 07:29:08;;;;;;;6.50;2.92;;;;;;;;;;5148533;27;20042;-65
2021/06/12 07:31:34;;;;;;;6.05;3.28;;;;;;;;;;5132903;27;20062;-64
2021/06/12 07:34:00;;;;;;;5.07;2.88;;;;;;;;;;5142097;27;20037;-64
2021/06/12 07:36:27;;;;;;;5.22;3.20;;;;;;;;;;5153551;27;20027;-64
2021/06/12 07:38:53;;;;;;;8.63;3.28;;;;;;;;;;5152195;27;20068;-64
2021/06/12 07:41:19;;;;;;;5.22;3.03;;;;;;;;;;5145321;27;20046;-64
2021/06/12 07:43:46;;;;;;;5.18;3.38;;;;;;;;;;5132121;27;20026;-64
2021/06/12 07:46:12;;;;;;;6.93;2.97;;;;;;;;;;5141732;27;20082;-64
2021/06/12 07:48:38;;;;;;;5.88;2.90;;;;;;;;;;5135902;27;20018;-64
2021/06/12 07:51:05;;;;;;;5.53;3.13;;;;;;;;;;5138998;27;20114;-64
2021/06/12 07:53:32;;;;;;;7.53;2.53;;;;;;;;;;5157404;27;20038;-64
2021/06/12 07:55:58;;;;;;;7.25;2.95;;;;;;;;;;5157318;27;20019;-64
2021/06/12 07:58:25;;;;;;;7.18;3.10;;;;;;;;;;5157352;27;20025;-64
2021/06/12 08:00:51;;;;;;;4.90;2.50;;;;;;;;;;5157455;27;20065;-63
2021/06/12 08:03:17;;;;;;;6.20;2.72;;;;;;;;;;5144689;27;20610;-64
2021/06/12 08:05:43;;;;;;;5.65;2.42;;;;;;;;;;5147538;27;20560;-63
2021/06/12 08:08:09;;;;;;;6.03;2.40;;;;;;;;;;5145429;27;20075;-64
2021/06/12 08:10:35;;;;;;;11.75;2.67;;;;;;;;;;5128683;27;20038;-64
2021/06/12 08:13:01;;;;;;;8.77;3.08;;;;;;;;;;5136211;27;20031;-64
2021/06/12 08:15:27;;;;;;;4.60;2.70;;;;;;;;;;5136668;27;20015;-64
2021/06/12 08:17:53;;;;;;;6.00;3.08;;;;;;;;;;5136545;27;20015;-64
2021/06/12 08:20:20;;;;;;;4.32;2.47;;;;;;;;;;5141145;27;20094;-63
2021/06/12 08:22:46;;;;;;;8.05;2.85;;;;;;;;;;5149781;27;20597;-63
2021/06/12 08:25:12;;;;;;;4.45;2.42;;;;;;;;;;5138480;27;20126;-63
2021/06/12 08:27:38;;;;;;;7.97;2.58;;;;;;;;;;5129990;27;20496;-64
2021/06/12 08:30:05;;;;;;;6.97;2.53;;;;;;;;;;5154477;27;20039;-63
2021/06/12 08:32:31;;;;;;;5.85;2.70;;;;;;;;;;5143018;27;20434;-64
2021/06/12 08:34:57;;;;;;;6.25;2.85;;;;;;;;;;5137822;27;20037;-64
2021/06/12 08:37:23;;;;;;;6.80;2.67;;;;;;;;;;5145972;27;20080;-64
2021/06/12 08:39:52;;;;;;;6.30;2.55;;;;;;;;;;5156574;27;20041;-63
2021/06/12 08:42:18;;;;;;;5.13;2.53;;;;;;;;;;5156502;27;20038;-65
2021/06/12 08:44:45;;;;;;;8.75;2.70;;;;;;;;;;5156338;27;20031;-65
2021/06/12 08:47:11;;;;;;;5.65;2.35;;;;;;;;;;5156487;27;20018;-65
2021/06/12 08:49:38;;;;;;;6.32;2.92;;;;;;;;;;5155770;27;20117;-65
2021/06/12 08:52:04;;;;;;;9.02;3.20;;;;;;;;;;5155324;27;20027;-66
2021/06/12 08:54:30;;;;;;;29.88;8.27;;;;;;;;;;5127657;27;20037;-65
2021/06/12 08:56:56;;;;;;;29.30;10.35;;;;;;;;;;5155692;27;20031;-65
2021/06/12 08:59:23;;;;;;;19.75;7.45;;;;;;;;;;5156308;27;20102;-65
2021/06/12 09:01:49;;;;;;;20.52;8.45;;;;;;;;;;5155903;27;20355;-65
2021/06/12 09:04:28;;;;;;;21.92;8.45;;;;;;;;;;5156019;27;20026;-66
2021/06/12 09:07:14;;;;;;;23.27;7.60;;;;;;;;;;5119272;27;20057;-65
2021/06/12 09:09:41;;;;;;;23.08;7.85;;;;;;;;;;5124401;27;20115;-65
2021/06/12 09:12:07;;;;;;;21.88;7.85;;;;;;;;;;5156140;27;20026;-65
2021/06/12 09:14:33;;;;;;;16.75;7.53;;;;;;;;;;5137193;27;20018;-66
2021/06/12 09:16:59;;;;;;;14.93;7.55;;;;;;;;;;5155600;27;20019;-65
2021/06/12 09:19:25;;;;;;;16.40;7.30;;;;;;;;;;5155625;27;20033;-66
2021/06/12 09:21:56;;;;;;;18.08;6.53;;;;;;;;;;5146289;27;20037;-66
2021/06/12 09:24:23;;;;;;;17.38;6.95;;;;;;;;;;5137905;27;20019;-65
2021/06/12 09:26:53;;;;;;;19.45;6.00;;;;;;;;;;5148616;27;20110;-64
2021/06/12 09:29:20;;;;;;;16.85;6.15;;;;;;;;;;5155400;27;20023;-65
2021/06/12 09:31:48;;;;;;;32.70;7.70;;;;;;;;;;5155186;27;20035;-65
2021/06/12 09:34:15;;;;;;;18.38;6.65;;;;;;;;;;5155072;27;20422;-65
2021/06/12 09:36:41;;;;;;;21.45;5.82;;;;;;;;;;5155102;27;20079;-65
2021/06/12 09:39:17;;;;;;;17.05;5.75;;;;;;;;;;5148526;27;20060;-65
2021/06/12 09:41:47;;;;;;;23.00;5.65;;;;;;;;;;5144377;27;20039;-66
2021/06/12 09:44:29;;;;;;;18.30;5.60;;;;;;;;;;5154782;27;20023;-66
2021/06/12 09:46:55;;;;;;;14.87;6.50;;;;;;;;;;5154579;27;20050;-65
2021/06/12 09:49:29;;;;;;;13.50;5.93;;;;;;;;;;5154347;27;20291;-65
2021/06/12 09:52:21;;;;;;;18.70;6.40;;;;;;;;;;5154355;27;20027;-66
2021/06/12 09:54:47;;;;;;;;;;;;;;;;;;5127726;27;20037;-65
2021/06/12 09:57:15;;;;;;;17.20;5.18;;;;;;;;;;5153029;27;19914;-66
2021/06/12 09:59:41;;;;;;;16.65;5.43;;;;;;;;;;5155482;27;20045;-66
2021/06/12 10:02:07;;;;;;;21.65;5.60;;;;;;;;;;5154348;27;20072;-65
2021/06/12 10:04:33;;;;;;;27.48;6.38;;;;;;;;;;5154895;27;20042;-66
2021/06/12 10:06:59;;;;;;;14.68;5.53;;;;;;;;;;5154657;27;20027;-65
2021/06/12 10:09:25;;;;;;;13.63;5.45;;;;;;;;;;5154371;27;20096;-65
2021/06/12 10:11:52;;;;;;;13.90;5.57;;;;;;;;;;5134545;27;20124;-66
2021/06/12 10:14:18;;;;;;;21.83;5.78;;;;;;;;;;5153068;27;20023;-65
2021/06/12 10:16:45;;;;;;;10.80;5.35;;;;;;;;;;5151815;27;20029;-66
2021/06/12 10:19:16;;;;;;;19.55;5.65;;;;;;;;;;5152858;27;20101;-66
2021/06/12 10:21:42;;;;;;;13.82;5.78;;;;;;;;;;5154243;27;20023;-66
2021/06/12 10:24:08;;;;;;;14.02;5.78;;;;;;;;;;5153739;27;20015;-65
2021/06/12 10:26:34;;;;;;;11.30;5.63;;;;;;;;;;5154231;27;20075;-66
2021/06/12 10:29:01;;;;;;;11.43;5.45;;;;;;;;;;5154352;27;20152;-66
2021/06/12 10:31:33;;;;;;;9.60;5.50;;;;;;;;;;5136089;27;20037;-65
2021/06/12 10:34:00;;;;;;;8.65;5.32;;;;;;;;;;5154757;27;20481;-65
2021/06/12 10:36:27;;;;;;;10.80;5.60;;;;;;;;;;5154534;27;20033;-65
2021/06/12 10:38:55;;;;;;;13.43;5.32;;;;;;;;;;5154931;27;20046;-65
2021/06/12 10:41:27;;;;;;;11.35;5.60;;;;;;;;;;5154591;27;20034;-66
2021/06/12 10:43:54;;;;;;;14.00;5.00;;;;;;;;;;5154503;27;20023;-66
2021/06/12 10:46:24;;;;;;;10.23;5.05;;;;;;;;;;5154444;27;20477;-65
2021/06/12 10:48:52;;;;;;;10.20;5.40;;;;;;;;;;5154542;27;20027;-66
2021/06/12 10:51:27;;;;;;;7.97;5.00;;;;;;;;;;5154307;27;20033;-66
2021/06/12 10:54:34;;;;;;;15.85;5.15;;;;;;;;;;5135818;27;20026;-66
2021/06/12 10:57:03;;;;;;;8.30;5.10;;;;;;;;;;5153974;27;20023;-66
2021/06/12 10:59:48;;;;;;;8.85;4.70;;;;;;;;;;5154226;27;20633;-66
2021/06/12 11:02:59;;;;;;;9.93;4.88;;;;;;;;;;5154276;27;20027;-65
2021/06/12 11:05:05;;;;;;;6.45;4.68;;;;;;;;;;5142616;27;20027;-65
2021/06/12 11:07:36;;;;;;;8.77;4.63;;;;;;;;;;5135733;27;20058;-65
2021/06/12 11:10:11;;;;;;;8.82;5.00;;;;;;;;;;5154029;27;20027;-65
2021/06/12 11:12:46;;;;;;;8.65;4.35;;;;;;;;;;5154190;27;20385;-66
2021/06/12 11:15:13;;;;;;;7.25;3.85;;;;;;;;;;5135333;27;20373;-65
2021/06/12 11:17:40;;;;;;;7.65;4.57;;;;;;;;;;5153956;27;20494;-66
2021/06/12 11:20:07;;;;;;;7.43;4.72;;;;;;;;;;5153817;27;20019;-66
2021/06/12 11:22:40;;;;;;;6.43;4.32;;;;;;;;;;5135333;27;20030;-66
2021/06/12 11:25:09;;;;;;;8.35;4.60;;;;;;;;;;5153465;27;20022;-66
2021/06/12 11:27:38;;;;;;;8.13;4.53;;;;;;;;;;5153732;27;20023;-66
2021/06/12 11:30:20;;;;;;;6.28;3.95;;;;;;;;;;5153627;27;20123;-66
2021/06/12 11:32:50;;;;;;;6.43;4.15;;;;;;;;;;5153791;27;20105;-65
2021/06/12 11:35:35;;;;;;;6.22;4.38;;;;;;;;;;5153919;27;20018;-66
2021/06/12 11:38:01;;;;;;;5.93;4.28;;;;;;;;;;5153652;27;20667;-66
2021/06/12 11:40:27;;;;;;;7.90;4.18;;;;;;;;;;5153641;27;20020;-66
2021/06/12 11:42:53;;;;;;;6.75;4.18;;;;;;;;;;5152835;27;20378;-66
2021/06/12 11:45:23;;;;;;;5.72;4.55;;;;;;;;;;5133116;27;20041;-66
2021/06/12 11:47:50;;;;;;;6.10;4.15;;;;;;;;;;5133031;28;20544;-65
2021/06/12 11:50:24;;;;;;;8.57;4.50;;;;;;;;;;5132871;28;20066;-66
2021/06/12 11:52:50;;;;;;;6.32;3.97;;;;;;;;;;5132994;28;20011;-66
2021/06/12 11:55:21;;;;;;;7.18;3.95;;;;;;;;;;5132995;28;20348;-66
2021/06/12 11:57:49;;;;;;;7.05;4.13;;;;;;;;;;5132866;28;20015;-66
2021/06/12 12:00:33;;;;;;;7.72;4.60;;;;;;;;;;5132759;28;20019;-66
2021/06/12 12:03:12;;;;;;;5.65;4.20;;;;;;;;;;5114534;28;20399;-66
2021/06/12 12:05:42;;;;;;;5.93;4.25;;;;;;;;;;5132940;28;20095;-66
2021/06/12 12:08:16;;;;;;;7.70;4.32;;;;;;;;;;5114236;28;20494;-66
2021/06/12 12:10:43;;;;;;;7.35;4.50;;;;;;;;;;5132657;28;20037;-66
2021/06/12 12:13:37;;;;;;;6.43;4.20;;;;;;;;;;5132683;28;20019;-66
2021/06/12 12:16:18;;;;;;;5.25;4.07;;;;;;;;;;5132525;28;20160;-65
2021/06/12 12:18:49;;;;;;;6.03;4.13;;;;;;;;;;5132817;28;20046;-66
2021/06/12 12:21:15;;;;;;;6.85;4.53;;;;;;;;;;5134682;27;20024;-66
2021/06/12 12:23:41;;;;;;;5.20;4.30;;;;;;;;;;5153830;27;20099;-66
2021/06/12 12:26:12;;;;;;;6.28;4.80;;;;;;;;;;5153654;27;20024;-65
2021/06/12 12:28:55;;;;;;;6.88;4.47;;;;;;;;;;5153394;27;20021;-66
2021/06/12 12:31:22;;;;;;;5.40;4.13;;;;;;;;;;5153184;27;20027;-66
2021/06/12 12:33:49;;;;;;;5.93;4.57;;;;;;;;;;5152951;27;20023;-66
2021/06/12 12:36:15;;;;;;;5.68;4.40;;;;;;;;;;5136468;27;20087;-66
2021/06/12 12:38:42;;;;;;;6.82;4.57;;;;;;;;;;5138494;27;20030;-66
2021/06/12 12:41:10;;;;;;;6.45;4.63;;;;;;;;;;5156847;27;20099;-66
2021/06/12 12:43:36;;;;;;;5.53;4.32;;;;;;;;;;5138326;27;20559;-66
2021/06/12 12:46:04;;;;;;;6.35;4.35;;;;;;;;;;5156730;27;20015;-66
2021/06/12 12:48:32;;;;;;;5.95;4.20;;;;;;;;;;5156891;27;20109;-66
2021/06/12 12:50:58;;;;;;;5.65;4.07;;;;;;;;;;5156755;27;20070;-66
2021/06/12 12:53:24;;;;;;;5.57;3.90;;;;;;;;;;5156641;27;20052;-66
2021/06/12 12:55:57;;;;;;;5.07;3.80;;;;;;;;;;5156643;27;20023;-66
2021/06/12 12:58:25;;;;;;;4.82;3.78;;;;;;;;;;5157003;27;20360;-66
2021/06/12 13:00:51;;;;;;;5.63;4.32;;;;;;;;;;5156695;27;20023;-66
2021/06/12 13:03:17;;;;;;;6.07;4.25;;;;;;;;;;5137890;27;20025;-66
2021/06/12 13:05:46;;;;;;;5.53;4.10;;;;;;;;;;5156390;27;20026;-65
2021/06/12 13:08:14;;;;;;;5.68;4.32;;;;;;;;;;5156518;27;20011;-66
2021/06/12 13:10:41;;;;;;;6.20;4.28;;;;;;;;;;5156504;27;20035;-66
2021/06/12 13:13:08;;;;;;;5.00;4.00;;;;;;;;;;5156403;27;20477;-65
2021/06/12 13:15:35;;;;;;;5.47;4.32;;;;;;;;;;5156382;27;20533;-66
2021/06/12 13:18:08;;;;;;;5.97;4.35;;;;;;;;;;5156307;27;20508;-66
2021/06/12 13:20:35;;;;;;;5.45;4.15;;;;;;;;;;5155921;27;20022;-66
2021/06/12 13:23:01;;;;;;;5.18;4.03;;;;;;;;;;5155934;27;20022;-66
2021/06/12 13:25:27;;;;;;;6.22;4.10;;;;;;;;;;5155990;27;20615;-66
2021/06/12 13:27:54;;;;;;;4.78;3.90;;;;;;;;;;5156153;27;20022;-66
2021/06/12 13:30:21;;;;;;;5.57;4.03;;;;;;;;;;5155936;27;20023;-66
2021/06/12 13:32:50;;;;;;;5.28;4.20;;;;;;;;;;5155940;27;20172;-66
2021/06/12 13:35:20;;;;;;;5.03;4.22;;;;;;;;;;5156086;27;20105;-65
2021/06/12 13:38:00;;;;;;;5.78;4.10;;;;;;;;;;5156136;27;20029;-66
2021/06/12 13:40:26;;;;;;;5.90;4.10;;;;;;;;;;5155933;27;20015;-66
2021/06/12 13:42:52;;;;;;;5.45;4.30;;;;;;;;;;5155399;27;20096;-66
2021/06/12 13:45:19;;;;;;;4.93;3.80;;;;;;;;;;5153378;27;20125;-66
2021/06/12 13:47:45;;;;;;;5.18;3.85;;;;;;;;;;5155561;27;20075;-66
2021/06/12 13:50:11;;;;;;;5.75;4.32;;;;;;;;;;5155603;27;20062;-65
2021/06/12 13:52:37;;;;;;;5.38;4.18;;;;;;;;;;5155435;27;20019;-66
2021/06/12 13:55:08;;;;;;;5.20;3.78;;;;;;;;;;5155507;27;20030;-66
2021/06/12 13:57:34;;;;;;;5.43;3.85;;;;;;;;;;5155576;27;20003;-66
2021/06/12 14:00:01;;;;;;;4.60;3.63;;;;;;;;;;5155462;27;20074;-66
2021/06/12 14:02:27;;;;;;;5.07;3.60;;;;;;;;;;5155297;27;20022;-65
2021/06/12 14:04:53;;;;;;;5.22;3.63;;;;;;;;;;5155115;27;20066;-66
2021/06/12 14:07:19;;;;;;;5.55;4.20;;;;;;;;;;5155267;27;20080;-66
2021/06/12 14:09:45;;;;;;;5.32;3.85;;;;;;;;;;5155281;27;20546;-66
2021/06/12 14:12:11;;;;;;;5.43;4.25;;;;;;;;;;5155054;27;20512;-65
2021/06/12 14:14:37;;;;;;;5.32;3.83;;;;;;;;;;5155160;27;20019;-66
2021/06/12 14:17:06;;;;;;;5.82;3.85;;;;;;;;;;5155138;27;20548;-66
2021/06/12 14:19:33;;;;;;;4.88;4.03;;;;;;;;;;5155113;27;20030;-66
2021/06/12 14:21:59;;;;;;;4.75;3.70;;;;;;;;;;5155024;27;20541;-66
2021/06/12 14:24:25;;;;;;;5.20;4.10;;;;;;;;;;5154883;27;20154;-66
2021/06/12 14:26:52;;;;;;;4.80;3.70;;;;;;;;;;5155000;27;20111;-66
2021/06/12 14:29:19;;;;;;;4.50;3.67;;;;;;;;;;5154862;27;20022;-66
2021/06/12 14:31:45;;;;;;;5.18;4.32;;;;;;;;;;5154917;27;20033;-66
2021/06/12 14:34:15;;;;;;;5.03;3.85;;;;;;;;;;5154579;27;20374;-66
2021/06/12 14:36:42;;;;;;;7.43;4.40;;;;;;;;;;5154575;27;20097;-66
2021/06/12 14:39:08;;;;;;;4.97;3.92;;;;;;;;;;5154382;27;20026;-66
2021/06/12 14:41:41;;;;;;;7.35;4.15;;;;;;;;;;5154235;27;20042;-66
2021/06/12 14:44:07;;;;;;;;;;;;;;;;;;5136518;27;20061;-66
2021/06/12 14:46:33;;;;;;;5.43;3.92;;;;;;;;;;5154430;27;19972;-66